sensor_id;sensor_type;location;lat;lon;timestamp;P1;durP1;ratioP1;P2;durP2;ratioP2
11839;SDS011;5979;50.800;4.904;2023-04-15T00:00:04;4.00;;;3.75;;
11839;SDS011;5979;50.800;4.904;2023-04-15T00:02:31;4.50;;;3.95;;
11839;SDS011;5979;50.800;4.904;2023-04-15T00:04:57;3.92;;;3.63;;
11839;SDS011;5979;50.800;4.904;2023-04-15T00:07:22;4.57;;;4.03;;
11839;SDS011;5979;50.800;4.904;2023-04-15T00:09:48;3.92;;;3.47;;
11839;SDS011;5979;50.800;4.904;2023-04-15T00:12:14;4.20;;;3.65;;
11839;SDS011;5979;50.800;4.904;2023-04-15T00:14:40;4.07;;;3.60;;
11839;SDS011;5979;50.800;4.904;2023-04-15T00:17:05;4.50;;;4.00;;
11839;SDS011;5979;50.800;4.904;2023-04-15T00:19:31;7.00;;;4.40;;
11839;SDS011;5979;50.800;4.904;2023-04-15T00:21:57;3.75;;;3.45;;
11839;SDS011;5979;50.800;4.904;2023-04-15T00:24:23;3.60;;;3.33;;
11839;SDS011;5979;50.800;4.904;2023-04-15T00:26:49;3.97;;;3.58;;
11839;SDS011;5979;50.800;4.904;2023-04-15T00:29:15;4.30;;;4.00;;
11839;SDS011;5979;50.800;4.904;2023-04-15T00:31:40;4.10;;;3.80;;
11839;SDS011;5979;50.800;4.904;2023-04-15T00:34:06;4.75;;;4.00;;
11839;SDS011;5979;50.800;4.904;2023-04-15T00:36:32;3.65;;;3.35;;
11839;SDS011;5979;50.800;4.904;2023-04-15T00:38:59;3.85;;;3.53;;
11839;SDS011;5979;50.800;4.904;2023-04-15T00:41:25;3.75;;;3.47;;
11839;SDS011;5979;50.800;4.904;2023-04-15T00:43:51;5.38;;;3.83;;
11839;SDS011;5979;50.800;4.904;2023-04-15T00:46:16;3.55;;;3.35;;
11839;SDS011;5979;50.800;4.904;2023-04-15T00:48:45;4.05;;;3.75;;
11839;SDS011;5979;50.800;4.904;2023-04-15T00:51:12;4.97;;;4.20;;
11839;SDS011;5979;50.800;4.904;2023-04-15T00:53:38;4.63;;;3.28;;
11839;SDS011;5979;50.800;4.904;2023-04-15T00:58:50;6.75;;;4.20;;
11839;SDS011;5979;50.800;4.904;2023-04-15T01:01:25;4.80;;;4.35;;
11839;SDS011;5979;50.800;4.904;2023-04-15T01:03:51;5.63;;;4.60;;
11839;SDS011;5979;50.800;4.904;2023-04-15T01:06:17;4.90;;;3.65;;
11839;SDS011;5979;50.800;4.904;2023-04-15T01:08:43;5.35;;;4.25;;
11839;SDS011;5979;50.800;4.904;2023-04-15T01:11:09;4.55;;;4.25;;
11839;SDS011;5979;50.800;4.904;2023-04-15T01:13:37;5.07;;;4.63;;
11839;SDS011;5979;50.800;4.904;2023-04-15T01:16:03;5.22;;;4.72;;
11839;SDS011;5979;50.800;4.904;2023-04-15T01:18:30;5.60;;;4.15;;
11839;SDS011;5979;50.800;4.904;2023-04-15T01:20:56;5.95;;;5.35;;
11839;SDS011;5979;50.800;4.904;2023-04-15T01:23:22;6.40;;;5.60;;
11839;SDS011;5979;50.800;4.904;2023-04-15T01:25:48;5.57;;;5.07;;
11839;SDS011;5979;50.800;4.904;2023-04-15T01:28:15;6.10;;;5.50;;
11839;SDS011;5979;50.800;4.904;2023-04-15T01:30:40;6.65;;;5.43;;
11839;SDS011;5979;50.800;4.904;2023-04-15T01:33:07;7.78;;;5.45;;
11839;SDS011;5979;50.800;4.904;2023-04-15T01:35:32;6.32;;;5.40;;
11839;SDS011;5979;50.800;4.904;2023-04-15T01:38:05;5.78;;;5.22;;
11839;SDS011;5979;50.800;4.904;2023-04-15T01:40:32;5.60;;;4.95;;
11839;SDS011;5979;50.800;4.904;2023-04-15T01:42:59;5.00;;;4.50;;
11839;SDS011;5979;50.800;4.904;2023-04-15T01:45:25;5.55;;;4.45;;
11839;SDS011;5979;50.800;4.904;2023-04-15T01:47:51;5.18;;;4.32;;
11839;SDS011;5979;50.800;4.904;2023-04-15T01:50:17;6.60;;;4.38;;
11839;SDS011;5979;50.800;4.904;2023-04-15T01:52:44;4.63;;;4.22;;
11839;SDS011;5979;50.800;4.904;2023-04-15T01:55:10;5.13;;;4.72;;
11839;SDS011;5979;50.800;4.904;2023-04-15T01:57:37;5.65;;;5.05;;
11839;SDS011;5979;50.800;4.904;2023-04-15T02:00:03;5.95;;;5.30;;
11839;SDS011;5979;50.800;4.904;2023-04-15T02:02:29;8.15;;;5.68;;
11839;SDS011;5979;50.800;4.904;2023-04-15T02:04:55;4.95;;;4.55;;
11839;SDS011;5979;50.800;4.904;2023-04-15T02:07:20;5.38;;;4.90;;
11839;SDS011;5979;50.800;4.904;2023-04-15T02:09:46;6.40;;;5.47;;
11839;SDS011;5979;50.800;4.904;2023-04-15T02:12:12;6.28;;;5.68;;
11839;SDS011;5979;50.800;4.904;2023-04-15T02:14:38;7.10;;;5.65;;
11839;SDS011;5979;50.800;4.904;2023-04-15T02:17:03;6.38;;;5.82;;
11839;SDS011;5979;50.800;4.904;2023-04-15T02:19:34;7.57;;;5.78;;
11839;SDS011;5979;50.800;4.904;2023-04-15T02:22:00;6.35;;;5.85;;
11839;SDS011;5979;50.800;4.904;2023-04-15T02:24:27;6.93;;;5.28;;
11839;SDS011;5979;50.800;4.904;2023-04-15T02:26:53;5.18;;;4.68;;
11839;SDS011;5979;50.800;4.904;2023-04-15T02:29:20;5.35;;;4.70;;
11839;SDS011;5979;50.800;4.904;2023-04-15T02:31:47;5.35;;;4.93;;
11839;SDS011;5979;50.800;4.904;2023-04-15T02:34:12;5.10;;;4.68;;
11839;SDS011;5979;50.800;4.904;2023-04-15T02:36:38;6.75;;;5.68;;
11839;SDS011;5979;50.800;4.904;2023-04-15T02:39:05;5.93;;;5.43;;
11839;SDS011;5979;50.800;4.904;2023-04-15T02:41:31;8.07;;;6.55;;
11839;SDS011;5979;50.800;4.904;2023-04-15T02:43:56;8.25;;;5.90;;
11839;SDS011;5979;50.800;4.904;2023-04-15T02:46:22;7.18;;;6.43;;
11839;SDS011;5979;50.800;4.904;2023-04-15T02:48:48;7.53;;;5.68;;
11839;SDS011;5979;50.800;4.904;2023-04-15T02:51:14;5.63;;;5.13;;
11839;SDS011;5979;50.800;4.904;2023-04-15T02:53:43;5.65;;;5.07;;
11839;SDS011;5979;50.800;4.904;2023-04-15T02:56:09;6.18;;;5.68;;
11839;SDS011;5979;50.800;4.904;2023-04-15T02:58:35;6.82;;;5.95;;
11839;SDS011;5979;50.800;4.904;2023-04-15T03:01:01;6.75;;;6.15;;
11839;SDS011;5979;50.800;4.904;2023-04-15T03:03:27;5.55;;;5.05;;
11839;SDS011;5979;50.800;4.904;2023-04-15T03:05:53;6.32;;;5.72;;
11839;SDS011;5979;50.800;4.904;2023-04-15T03:08:18;6.10;;;5.40;;
11839;SDS011;5979;50.800;4.904;2023-04-15T03:10:47;5.75;;;5.07;;
11839;SDS011;5979;50.800;4.904;2023-04-15T03:13:13;5.95;;;5.10;;
11839;SDS011;5979;50.800;4.904;2023-04-15T03:15:38;6.00;;;5.30;;
11839;SDS011;5979;50.800;4.904;2023-04-15T03:18:04;5.40;;;4.90;;
11839;SDS011;5979;50.800;4.904;2023-04-15T03:20:30;6.72;;;5.00;;
11839;SDS011;5979;50.800;4.904;2023-04-15T03:22:56;5.85;;;5.43;;
11839;SDS011;5979;50.800;4.904;2023-04-15T03:25:21;4.97;;;4.65;;
11839;SDS011;5979;50.800;4.904;2023-04-15T03:27:47;6.60;;;6.00;;
11839;SDS011;5979;50.800;4.904;2023-04-15T03:30:13;6.43;;;5.80;;
11839;SDS011;5979;50.800;4.904;2023-04-15T03:32:39;8.07;;;5.40;;
11839;SDS011;5979;50.800;4.904;2023-04-15T03:35:04;6.20;;;5.70;;
11839;SDS011;5979;50.800;4.904;2023-04-15T03:37:30;6.45;;;5.85;;
11839;SDS011;5979;50.800;4.904;2023-04-15T03:39:56;5.35;;;4.85;;
11839;SDS011;5979;50.800;4.904;2023-04-15T03:42:22;6.50;;;5.90;;
11839;SDS011;5979;50.800;4.904;2023-04-15T03:44:48;6.03;;;5.38;;
11839;SDS011;5979;50.800;4.904;2023-04-15T03:47:13;5.53;;;5.10;;
11839;SDS011;5979;50.800;4.904;2023-04-15T03:49:39;6.00;;;5.18;;
11839;SDS011;5979;50.800;4.904;2023-04-15T03:52:05;5.65;;;5.15;;
11839;SDS011;5979;50.800;4.904;2023-04-15T03:54:31;5.18;;;4.78;;
11839;SDS011;5979;50.800;4.904;2023-04-15T03:56:56;5.18;;;4.88;;
11839;SDS011;5979;50.800;4.904;2023-04-15T03:59:22;6.13;;;5.50;;
11839;SDS011;5979;50.800;4.904;2023-04-15T04:01:48;6.20;;;5.10;;
11839;SDS011;5979;50.800;4.904;2023-04-15T04:04:14;6.25;;;4.90;;
11839;SDS011;5979;50.800;4.904;2023-04-15T04:06:39;6.53;;;4.43;;
11839;SDS011;5979;50.800;4.904;2023-04-15T04:09:05;5.78;;;5.30;;
11839;SDS011;5979;50.800;4.904;2023-04-15T04:11:31;5.65;;;5.22;;
11839;SDS011;5979;50.800;4.904;2023-04-15T04:13:57;6.07;;;5.57;;
11839;SDS011;5979;50.800;4.904;2023-04-15T04:16:23;5.65;;;4.93;;
11839;SDS011;5979;50.800;4.904;2023-04-15T04:18:48;5.25;;;4.80;;
11839;SDS011;5979;50.800;4.904;2023-04-15T04:21:14;5.45;;;4.97;;
11839;SDS011;5979;50.800;4.904;2023-04-15T04:23:40;5.18;;;4.72;;
11839;SDS011;5979;50.800;4.904;2023-04-15T04:26:06;4.82;;;4.47;;
11839;SDS011;5979;50.800;4.904;2023-04-15T04:28:32;6.75;;;4.78;;
11839;SDS011;5979;50.800;4.904;2023-04-15T04:30:59;5.20;;;4.70;;
11839;SDS011;5979;50.800;4.904;2023-04-15T04:33:25;5.43;;;5.00;;
11839;SDS011;5979;50.800;4.904;2023-04-15T04:35:51;5.20;;;4.60;;
11839;SDS011;5979;50.800;4.904;2023-04-15T04:38:16;4.53;;;4.22;;
11839;SDS011;5979;50.800;4.904;2023-04-15T04:40:42;5.30;;;4.80;;
11839;SDS011;5979;50.800;4.904;2023-04-15T04:43:08;4.40;;;4.10;;
11839;SDS011;5979;50.800;4.904;2023-04-15T04:45:34;4.63;;;4.22;;
11839;SDS011;5979;50.800;4.904;2023-04-15T04:48:00;5.30;;;4.85;;
11839;SDS011;5979;50.800;4.904;2023-04-15T04:50:25;5.15;;;4.75;;
11839;SDS011;5979;50.800;4.904;2023-04-15T04:52:51;5.85;;;5.30;;
11839;SDS011;5979;50.800;4.904;2023-04-15T04:55:17;5.53;;;5.13;;
11839;SDS011;5979;50.800;4.904;2023-04-15T04:57:43;5.70;;;5.10;;
11839;SDS011;5979;50.800;4.904;2023-04-15T05:00:09;5.75;;;5.25;;
11839;SDS011;5979;50.800;4.904;2023-04-15T05:02:35;5.18;;;4.78;;
11839;SDS011;5979;50.800;4.904;2023-04-15T05:05:00;5.10;;;4.65;;
11839;SDS011;5979;50.800;4.904;2023-04-15T05:07:26;6.53;;;4.55;;
11839;SDS011;5979;50.800;4.904;2023-04-15T05:09:52;4.63;;;4.22;;
11839;SDS011;5979;50.800;4.904;2023-04-15T05:12:18;5.53;;;4.57;;
11839;SDS011;5979;50.800;4.904;2023-04-15T05:14:43;4.63;;;4.20;;
11839;SDS011;5979;50.800;4.904;2023-04-15T05:17:10;5.82;;;5.32;;
11839;SDS011;5979;50.800;4.904;2023-04-15T05:19:36;4.88;;;4.55;;
11839;SDS011;5979;50.800;4.904;2023-04-15T05:22:02;4.57;;;4.20;;
11839;SDS011;5979;50.800;4.904;2023-04-15T05:24:28;5.32;;;4.82;;
11839;SDS011;5979;50.800;4.904;2023-04-15T05:26:53;4.38;;;4.00;;
11839;SDS011;5979;50.800;4.904;2023-04-15T05:29:20;4.82;;;4.40;;
11839;SDS011;5979;50.800;4.904;2023-04-15T05:31:46;5.07;;;4.68;;
11839;SDS011;5979;50.800;4.904;2023-04-15T05:34:11;5.25;;;4.75;;
11839;SDS011;5979;50.800;4.904;2023-04-15T05:36:39;7.95;;;5.32;;
11839;SDS011;5979;50.800;4.904;2023-04-15T05:39:09;5.47;;;5.07;;
11839;SDS011;5979;50.800;4.904;2023-04-15T05:41:34;5.53;;;4.90;;
11839;SDS011;5979;50.800;4.904;2023-04-15T05:44:00;5.32;;;4.93;;
11839;SDS011;5979;50.800;4.904;2023-04-15T05:46:26;7.63;;;4.75;;
11839;SDS011;5979;50.800;4.904;2023-04-15T05:48:51;5.80;;;5.30;;
11839;SDS011;5979;50.800;4.904;2023-04-15T05:51:17;5.10;;;4.60;;
11839;SDS011;5979;50.800;4.904;2023-04-15T05:53:43;6.50;;;5.63;;
11839;SDS011;5979;50.800;4.904;2023-04-15T05:56:10;5.03;;;4.63;;
11839;SDS011;5979;50.800;4.904;2023-04-15T05:58:36;6.15;;;5.15;;
11839;SDS011;5979;50.800;4.904;2023-04-15T06:01:02;6.50;;;4.97;;
11839;SDS011;5979;50.800;4.904;2023-04-15T06:03:28;5.78;;;5.00;;
11839;SDS011;5979;50.800;4.904;2023-04-15T06:05:54;5.35;;;4.88;;
11839;SDS011;5979;50.800;4.904;2023-04-15T06:08:20;5.20;;;4.80;;
11839;SDS011;5979;50.800;4.904;2023-04-15T06:10:46;5.00;;;4.43;;
11839;SDS011;5979;50.800;4.904;2023-04-15T06:13:12;6.45;;;4.82;;
11839;SDS011;5979;50.800;4.904;2023-04-15T06:15:38;5.70;;;5.10;;
11839;SDS011;5979;50.800;4.904;2023-04-15T06:18:03;4.93;;;4.43;;
11839;SDS011;5979;50.800;4.904;2023-04-15T06:20:29;5.28;;;4.78;;
11839;SDS011;5979;50.800;4.904;2023-04-15T06:22:55;6.90;;;4.85;;
11839;SDS011;5979;50.800;4.904;2023-04-15T06:25:21;8.48;;;4.78;;
11839;SDS011;5979;50.800;4.904;2023-04-15T06:27:48;6.45;;;4.40;;
11839;SDS011;5979;50.800;4.904;2023-04-15T06:30:13;7.05;;;4.68;;
11839;SDS011;5979;50.800;4.904;2023-04-15T06:32:39;6.32;;;4.68;;
11839;SDS011;5979;50.800;4.904;2023-04-15T06:35:05;6.80;;;4.60;;
11839;SDS011;5979;50.800;4.904;2023-04-15T06:37:31;7.90;;;4.47;;
11839;SDS011;5979;50.800;4.904;2023-04-15T06:39:56;7.05;;;5.03;;
11839;SDS011;5979;50.800;4.904;2023-04-15T06:42:22;6.25;;;4.50;;
11839;SDS011;5979;50.800;4.904;2023-04-15T06:44:48;5.97;;;4.85;;
11839;SDS011;5979;50.800;4.904;2023-04-15T06:47:14;5.97;;;4.97;;
11839;SDS011;5979;50.800;4.904;2023-04-15T06:49:40;6.80;;;4.93;;
11839;SDS011;5979;50.800;4.904;2023-04-15T06:52:07;6.30;;;5.07;;
11839;SDS011;5979;50.800;4.904;2023-04-15T06:54:34;5.82;;;4.78;;
11839;SDS011;5979;50.800;4.904;2023-04-15T06:56:59;5.10;;;4.70;;
11839;SDS011;5979;50.800;4.904;2023-04-15T06:59:25;5.28;;;4.80;;
11839;SDS011;5979;50.800;4.904;2023-04-15T07:01:51;5.45;;;4.93;;
11839;SDS011;5979;50.800;4.904;2023-04-15T07:04:17;5.78;;;4.93;;
11839;SDS011;5979;50.800;4.904;2023-04-15T07:06:42;8.30;;;5.25;;
11839;SDS011;5979;50.800;4.904;2023-04-15T07:09:08;8.00;;;5.38;;
11839;SDS011;5979;50.800;4.904;2023-04-15T07:11:34;7.45;;;5.05;;
11839;SDS011;5979;50.800;4.904;2023-04-15T07:14:00;7.75;;;5.50;;
11839;SDS011;5979;50.800;4.904;2023-04-15T07:16:26;7.72;;;5.38;;
11839;SDS011;5979;50.800;4.904;2023-04-15T07:18:52;8.77;;;5.28;;
11839;SDS011;5979;50.800;4.904;2023-04-15T07:21:18;7.82;;;5.35;;
11839;SDS011;5979;50.800;4.904;2023-04-15T07:23:43;6.32;;;5.20;;
11839;SDS011;5979;50.800;4.904;2023-04-15T07:26:09;8.45;;;5.97;;
11839;SDS011;5979;50.800;4.904;2023-04-15T07:28:35;8.43;;;5.70;;
11839;SDS011;5979;50.800;4.904;2023-04-15T07:31:01;5.80;;;5.28;;
11839;SDS011;5979;50.800;4.904;2023-04-15T07:33:26;6.95;;;6.22;;
11839;SDS011;5979;50.800;4.904;2023-04-15T07:35:52;7.80;;;6.10;;
11839;SDS011;5979;50.800;4.904;2023-04-15T07:38:18;8.13;;;5.63;;
11839;SDS011;5979;50.800;4.904;2023-04-15T07:40:45;8.82;;;6.70;;
11839;SDS011;5979;50.800;4.904;2023-04-15T07:43:10;8.10;;;5.70;;
11839;SDS011;5979;50.800;4.904;2023-04-15T07:45:37;10.20;;;6.20;;
11839;SDS011;5979;50.800;4.904;2023-04-15T07:48:03;7.38;;;6.68;;
11839;SDS011;5979;50.800;4.904;2023-04-15T07:50:30;7.47;;;6.35;;
11839;SDS011;5979;50.800;4.904;2023-04-15T07:52:56;7.25;;;6.50;;
11839;SDS011;5979;50.800;4.904;2023-04-15T07:55:22;10.52;;;6.53;;
11839;SDS011;5979;50.800;4.904;2023-04-15T07:57:48;10.40;;;7.00;;
11839;SDS011;5979;50.800;4.904;2023-04-15T08:00:14;7.85;;;6.63;;
11839;SDS011;5979;50.800;4.904;2023-04-15T08:02:41;8.88;;;6.63;;
11839;SDS011;5979;50.800;4.904;2023-04-15T08:05:07;8.98;;;6.95;;
11839;SDS011;5979;50.800;4.904;2023-04-15T08:07:36;8.88;;;6.90;;
11839;SDS011;5979;50.800;4.904;2023-04-15T08:10:02;10.07;;;7.05;;
11839;SDS011;5979;50.800;4.904;2023-04-15T08:12:28;9.20;;;6.80;;
11839;SDS011;5979;50.800;4.904;2023-04-15T08:14:54;10.30;;;6.90;;
11839;SDS011;5979;50.800;4.904;2023-04-15T08:17:21;7.40;;;6.65;;
11839;SDS011;5979;50.800;4.904;2023-04-15T08:19:47;9.40;;;7.50;;
11839;SDS011;5979;50.800;4.904;2023-04-15T08:22:13;8.75;;;7.60;;
11839;SDS011;5979;50.800;4.904;2023-04-15T08:24:39;9.40;;;7.47;;
11839;SDS011;5979;50.800;4.904;2023-04-15T08:27:05;7.72;;;6.90;;
11839;SDS011;5979;50.800;4.904;2023-04-15T08:29:31;8.50;;;7.10;;
11839;SDS011;5979;50.800;4.904;2023-04-15T08:32:01;8.50;;;7.70;;
11839;SDS011;5979;50.800;4.904;2023-04-15T08:34:27;9.32;;;7.70;;
11839;SDS011;5979;50.800;4.904;2023-04-15T08:36:53;9.02;;;7.35;;
11839;SDS011;5979;50.800;4.904;2023-04-15T08:39:19;10.15;;;7.80;;
11839;SDS011;5979;50.800;4.904;2023-04-15T08:42:07;9.77;;;7.57;;
11839;SDS011;5979;50.800;4.904;2023-04-15T08:44:35;10.55;;;8.07;;
11839;SDS011;5979;50.800;4.904;2023-04-15T08:47:02;10.10;;;7.65;;
11839;SDS011;5979;50.800;4.904;2023-04-15T08:49:31;10.13;;;7.78;;
11839;SDS011;5979;50.800;4.904;2023-04-15T08:51:58;8.15;;;7.40;;
11839;SDS011;5979;50.800;4.904;2023-04-15T08:54:24;9.95;;;7.40;;
11839;SDS011;5979;50.800;4.904;2023-04-15T08:56:52;8.82;;;7.63;;
11839;SDS011;5979;50.800;4.904;2023-04-15T08:59:18;10.65;;;7.97;;
11839;SDS011;5979;50.800;4.904;2023-04-15T09:01:46;7.50;;;6.80;;
11839;SDS011;5979;50.800;4.904;2023-04-15T09:04:13;7.15;;;6.47;;
11839;SDS011;5979;50.800;4.904;2023-04-15T09:06:39;9.05;;;7.07;;
11839;SDS011;5979;50.800;4.904;2023-04-15T09:09:05;9.18;;;7.18;;
11839;SDS011;5979;50.800;4.904;2023-04-15T09:11:31;8.60;;;7.07;;
11839;SDS011;5979;50.800;4.904;2023-04-15T09:13:57;10.23;;;7.88;;
11839;SDS011;5979;50.800;4.904;2023-04-15T09:16:22;9.23;;;8.32;;
11839;SDS011;5979;50.800;4.904;2023-04-15T09:18:48;10.65;;;8.13;;
11839;SDS011;5979;50.800;4.904;2023-04-15T09:21:15;9.80;;;8.48;;
11839;SDS011;5979;50.800;4.904;2023-04-15T09:23:54;9.73;;;8.77;;
11839;SDS011;5979;50.800;4.904;2023-04-15T09:26:32;9.52;;;8.63;;
11839;SDS011;5979;50.800;4.904;2023-04-15T09:29:16;9.38;;;8.35;;
11839;SDS011;5979;50.800;4.904;2023-04-15T09:31:42;9.57;;;8.60;;
11839;SDS011;5979;50.800;4.904;2023-04-15T09:34:08;8.68;;;7.43;;
11839;SDS011;5979;50.800;4.904;2023-04-15T09:36:50;8.00;;;7.10;;
11839;SDS011;5979;50.800;4.904;2023-04-15T09:39:22;9.98;;;7.65;;
11839;SDS011;5979;50.800;4.904;2023-04-15T09:42:06;9.77;;;8.15;;
11839;SDS011;5979;50.800;4.904;2023-04-15T09:44:32;7.90;;;7.18;;
11839;SDS011;5979;50.800;4.904;2023-04-15T09:46:58;8.02;;;7.25;;
11839;SDS011;5979;50.800;4.904;2023-04-15T09:49:23;9.55;;;7.35;;
11839;SDS011;5979;50.800;4.904;2023-04-15T09:51:49;8.45;;;7.50;;
11839;SDS011;5979;50.800;4.904;2023-04-15T09:54:18;9.27;;;6.80;;
11839;SDS011;5979;50.800;4.904;2023-04-15T09:56:45;7.07;;;6.20;;
11839;SDS011;5979;50.800;4.904;2023-04-15T09:59:12;8.07;;;6.18;;
11839;SDS011;5979;50.800;4.904;2023-04-15T10:01:38;6.63;;;6.00;;
11839;SDS011;5979;50.800;4.904;2023-04-15T10:04:06;7.40;;;6.60;;
11839;SDS011;5979;50.800;4.904;2023-04-15T10:09:18;7.15;;;6.45;;
11839;SDS011;5979;50.800;4.904;2023-04-15T10:11:44;5.90;;;5.28;;
11839;SDS011;5979;50.800;4.904;2023-04-15T10:14:12;5.80;;;5.13;;
11839;SDS011;5979;50.800;4.904;2023-04-15T10:16:40;7.47;;;5.53;;
11839;SDS011;5979;50.800;4.904;2023-04-15T10:19:07;6.45;;;5.93;;
11839;SDS011;5979;50.800;4.904;2023-04-15T10:21:35;5.45;;;5.05;;
11839;SDS011;5979;50.800;4.904;2023-04-15T10:24:02;5.68;;;5.18;;
11839;SDS011;5979;50.800;4.904;2023-04-15T10:26:28;5.80;;;5.30;;
11839;SDS011;5979;50.800;4.904;2023-04-15T10:28:55;5.82;;;5.22;;
11839;SDS011;5979;50.800;4.904;2023-04-15T10:31:21;5.65;;;4.90;;
11839;SDS011;5979;50.800;4.904;2023-04-15T10:33:47;4.35;;;4.05;;
11839;SDS011;5979;50.800;4.904;2023-04-15T10:36:14;4.60;;;4.22;;
11839;SDS011;5979;50.800;4.904;2023-04-15T10:38:43;5.38;;;4.97;;
11839;SDS011;5979;50.800;4.904;2023-04-15T10:44:00;5.45;;;5.05;;
11839;SDS011;5979;50.800;4.904;2023-04-15T10:46:43;5.78;;;5.32;;
11839;SDS011;5979;50.800;4.904;2023-04-15T10:49:13;5.88;;;5.40;;
11839;SDS011;5979;50.800;4.904;2023-04-15T10:51:57;5.40;;;5.00;;
11839;SDS011;5979;50.800;4.904;2023-04-15T11:01:59;4.80;;;4.40;;
11839;SDS011;5979;50.800;4.904;2023-04-15T11:07:35;5.70;;;5.22;;
11839;SDS011;5979;50.800;4.904;2023-04-15T11:12:41;3.92;;;3.55;;
11839;SDS011;5979;50.800;4.904;2023-04-15T11:17:53;4.32;;;3.92;;
11839;SDS011;5979;50.800;4.904;2023-04-15T11:20:19;4.57;;;4.18;;
11839;SDS011;5979;50.800;4.904;2023-04-15T11:22:52;4.25;;;3.95;;
11839;SDS011;5979;50.800;4.904;2023-04-15T11:25:25;3.63;;;3.40;;
11839;SDS011;5979;50.800;4.904;2023-04-15T11:27:52;3.58;;;3.25;;
11839;SDS011;5979;50.800;4.904;2023-04-15T11:30:19;3.53;;;3.33;;
11839;SDS011;5979;50.800;4.904;2023-04-15T11:32:47;5.15;;;3.45;;
11839;SDS011;5979;50.800;4.904;2023-04-15T11:35:13;4.28;;;3.15;;
11839;SDS011;5979;50.800;4.904;2023-04-15T11:37:38;3.55;;;2.80;;
11839;SDS011;5979;50.800;4.904;2023-04-15T11:40:05;3.17;;;2.85;;
11839;SDS011;5979;50.800;4.904;2023-04-15T11:42:31;3.28;;;2.80;;
11839;SDS011;5979;50.800;4.904;2023-04-15T11:45:10;3.45;;;3.25;;
11839;SDS011;5979;50.800;4.904;2023-04-15T11:47:38;3.08;;;2.83;;
11839;SDS011;5979;50.800;4.904;2023-04-15T11:55:22;4.07;;;2.30;;
11839;SDS011;5979;50.800;4.904;2023-04-15T12:00:41;3.50;;;2.30;;
11839;SDS011;5979;50.800;4.904;2023-04-15T12:06:04;3.08;;;2.88;;
11839;SDS011;5979;50.800;4.904;2023-04-15T12:13:52;3.33;;;3.03;;
11839;SDS011;5979;50.800;4.904;2023-04-15T12:16:20;3.72;;;2.50;;
11839;SDS011;5979;50.800;4.904;2023-04-15T12:18:50;4.13;;;2.30;;
11839;SDS011;5979;50.800;4.904;2023-04-15T12:21:19;2.00;;;1.90;;
11839;SDS011;5979;50.800;4.904;2023-04-15T12:23:50;3.72;;;2.03;;
11839;SDS011;5979;50.800;4.904;2023-04-15T12:26:17;3.22;;;2.10;;
11839;SDS011;5979;50.800;4.904;2023-04-15T12:28:52;3.53;;;1.88;;
11839;SDS011;5979;50.800;4.904;2023-04-15T12:31:20;2.38;;;2.25;;
11839;SDS011;5979;50.800;4.904;2023-04-15T12:33:47;2.20;;;2.10;;
11839;SDS011;5979;50.800;4.904;2023-04-15T12:36:14;2.25;;;2.05;;
11839;SDS011;5979;50.800;4.904;2023-04-15T12:38:40;2.33;;;2.00;;
11839;SDS011;5979;50.800;4.904;2023-04-15T12:41:06;2.80;;;1.73;;
11839;SDS011;5979;50.800;4.904;2023-04-15T12:43:32;1.90;;;1.80;;
11839;SDS011;5979;50.800;4.904;2023-04-15T12:45:57;1.95;;;1.75;;
11839;SDS011;5979;50.800;4.904;2023-04-15T12:48:23;3.08;;;1.50;;
11839;SDS011;5979;50.800;4.904;2023-04-15T12:50:49;2.00;;;1.30;;
11839;SDS011;5979;50.800;4.904;2023-04-15T12:53:15;1.42;;;1.33;;
11839;SDS011;5979;50.800;4.904;2023-04-15T12:55:41;1.60;;;1.50;;
11839;SDS011;5979;50.800;4.904;2023-04-15T12:58:07;1.25;;;1.25;;
11839;SDS011;5979;50.800;4.904;2023-04-15T13:00:33;1.70;;;1.60;;
11839;SDS011;5979;50.800;4.904;2023-04-15T13:02:59;1.70;;;1.48;;
11839;SDS011;5979;50.800;4.904;2023-04-15T13:05:25;1.30;;;1.30;;
11839;SDS011;5979;50.800;4.904;2023-04-15T13:07:50;1.80;;;1.58;;
11839;SDS011;5979;50.800;4.904;2023-04-15T13:10:16;1.67;;;1.40;;
11839;SDS011;5979;50.800;4.904;2023-04-15T13:12:42;1.80;;;1.70;;
11839;SDS011;5979;50.800;4.904;2023-04-15T13:15:10;1.50;;;1.40;;
11839;SDS011;5979;50.800;4.904;2023-04-15T13:17:37;2.15;;;1.67;;
11839;SDS011;5979;50.800;4.904;2023-04-15T13:20:03;1.90;;;1.80;;
11839;SDS011;5979;50.800;4.904;2023-04-15T13:22:29;2.65;;;1.90;;
11839;SDS011;5979;50.800;4.904;2023-04-15T13:24:55;1.80;;;1.70;;
11839;SDS011;5979;50.800;4.904;2023-04-15T13:27:21;1.65;;;1.55;;
11839;SDS011;5979;50.800;4.904;2023-04-15T13:29:47;2.17;;;1.20;;
11839;SDS011;5979;50.800;4.904;2023-04-15T13:32:13;2.08;;;1.52;;
11839;SDS011;5979;50.800;4.904;2023-04-15T13:34:38;1.70;;;1.60;;
11839;SDS011;5979;50.800;4.904;2023-04-15T13:37:07;1.98;;;1.80;;
11839;SDS011;5979;50.800;4.904;2023-04-15T13:39:33;1.67;;;1.67;;
11839;SDS011;5979;50.800;4.904;2023-04-15T13:41:59;1.75;;;1.65;;
11839;SDS011;5979;50.800;4.904;2023-04-15T13:44:25;3.20;;;1.85;;
11839;SDS011;5979;50.800;4.904;2023-04-15T13:46:51;1.88;;;1.77;;
11839;SDS011;5979;50.800;4.904;2023-04-15T13:49:17;2.45;;;1.63;;
11839;SDS011;5979;50.800;4.904;2023-04-15T13:51:42;1.35;;;1.35;;
11839;SDS011;5979;50.800;4.904;2023-04-15T13:54:08;3.10;;;1.55;;
11839;SDS011;5979;50.800;4.904;2023-04-15T13:56:34;1.75;;;1.38;;
11839;SDS011;5979;50.800;4.904;2023-04-15T13:59:00;2.75;;;1.60;;
11839;SDS011;5979;50.800;4.904;2023-04-15T14:01:27;1.73;;;1.63;;
11839;SDS011;5979;50.800;4.904;2023-04-15T14:03:53;3.17;;;2.10;;
11839;SDS011;5979;50.800;4.904;2023-04-15T14:06:19;2.53;;;1.75;;
11839;SDS011;5979;50.800;4.904;2023-04-15T14:08:45;1.85;;;1.75;;
11839;SDS011;5979;50.800;4.904;2023-04-15T14:11:11;1.80;;;1.70;;
11839;SDS011;5979;50.800;4.904;2023-04-15T14:13:36;2.58;;;2.38;;
11839;SDS011;5979;50.800;4.904;2023-04-15T14:16:02;3.92;;;2.58;;
11839;SDS011;5979;50.800;4.904;2023-04-15T14:18:28;2.35;;;2.15;;
11839;SDS011;5979;50.800;4.904;2023-04-15T14:20:54;2.78;;;1.50;;
11839;SDS011;5979;50.800;4.904;2023-04-15T14:23:21;2.17;;;1.92;;
11839;SDS011;5979;50.800;4.904;2023-04-15T14:25:47;1.70;;;1.60;;
11839;SDS011;5979;50.800;4.904;2023-04-15T14:28:13;1.95;;;1.85;;
11839;SDS011;5979;50.800;4.904;2023-04-15T14:30:39;1.60;;;1.50;;
11839;SDS011;5979;50.800;4.904;2023-04-15T14:33:04;2.00;;;1.90;;
11839;SDS011;5979;50.800;4.904;2023-04-15T14:35:30;2.60;;;2.03;;
11839;SDS011;5979;50.800;4.904;2023-04-15T14:37:56;2.45;;;2.33;;
11839;SDS011;5979;50.800;4.904;2023-04-15T14:40:22;2.15;;;2.05;;
11839;SDS011;5979;50.800;4.904;2023-04-15T14:42:48;3.63;;;2.40;;
11839;SDS011;5979;50.800;4.904;2023-04-15T14:45:13;2.35;;;2.10;;
11839;SDS011;5979;50.800;4.904;2023-04-15T14:47:39;2.45;;;2.33;;
11839;SDS011;5979;50.800;4.904;2023-04-15T14:50:05;2.40;;;2.30;;
11839;SDS011;5979;50.800;4.904;2023-04-15T14:52:31;2.95;;;2.72;;
11839;SDS011;5979;50.800;4.904;2023-04-15T14:55:03;4.25;;;3.13;;
11839;SDS011;5979;50.800;4.904;2023-04-15T14:57:36;3.50;;;2.95;;
11839;SDS011;5979;50.800;4.904;2023-04-15T15:00:03;2.95;;;2.75;;
11839;SDS011;5979;50.800;4.904;2023-04-15T15:02:31;2.53;;;2.33;;
11839;SDS011;5979;50.800;4.904;2023-04-15T15:04:59;2.03;;;1.88;;
11839;SDS011;5979;50.800;4.904;2023-04-15T15:07:25;2.20;;;2.10;;
11839;SDS011;5979;50.800;4.904;2023-04-15T15:09:51;2.10;;;2.00;;
11839;SDS011;5979;50.800;4.904;2023-04-15T15:12:17;2.55;;;2.30;;
11839;SDS011;5979;50.800;4.904;2023-04-15T15:14:43;2.83;;;2.50;;
11839;SDS011;5979;50.800;4.904;2023-04-15T15:17:09;2.95;;;2.70;;
11839;SDS011;5979;50.800;4.904;2023-04-15T15:19:35;5.75;;;2.33;;
11839;SDS011;5979;50.800;4.904;2023-04-15T15:22:01;3.05;;;2.40;;
11839;SDS011;5979;50.800;4.904;2023-04-15T15:24:27;2.33;;;2.13;;
11839;SDS011;5979;50.800;4.904;2023-04-15T15:26:53;2.15;;;2.05;;
11839;SDS011;5979;50.800;4.904;2023-04-15T15:29:19;3.55;;;2.00;;
11839;SDS011;5979;50.800;4.904;2023-04-15T15:31:45;2.25;;;2.15;;
11839;SDS011;5979;50.800;4.904;2023-04-15T15:34:11;2.17;;;2.08;;
11839;SDS011;5979;50.800;4.904;2023-04-15T15:36:36;2.28;;;1.65;;